Search for airport 
image banner adimage banner adimage banner ad
image banner ad

KBWC - Brawley Muni

Located in Brawley, United States

ICAO - BWC, IATA - BWC

Data provided by Airmate  

General information

Coordinates: N32°59'35" W115°31'2"
Elevation is -128 feet MSL.
Magnetic variation is 13° East
View others Airports in California

Operational data

Special qualification required
Current time UTC:
Current local time:
Weather at : KIPL - Imperial County ( 19 km )
METAR: KIPL 221353Z AUTO 02003KT 9SM CLR 29/21 A2975 RMK AO2 SLP074 T02890206
TAF: KIPL 221132Z 2212/2312 VRB05KT P6SM BKN150 OVC250 FM221400 14005KT P6SM SCT150 BKN250 FM222200 15012KT P6SM SCT130 BKN250 FM230400 24009KT P6SM VCSH SCT120 BKN200 FM231000 15011KT P6SM FEW120 SCT200
View NOTAMs / SUP AIP / TFR affecting this airport [VIEW]
Communications frequencies: [VIEW]

Runways:

RWY identifierQFULength (ft)Width (ft)SurfaceLDA (ft)
0890°416660ASPH
26270°416660ASPH

Airport contact information

Address: Brawley United States

Satellite view of KBWC